Time;durP1;ratioP1;P1;durP2;ratioP2;P2;SDS_P1;SDS_P2;PMS_P1;PMS_P2;Temp;Humidity;BMP_temperature;BMP_pressure;BME280_temperature;BME280_humidity;BME280_pressure;Samples;Min_cycle;Max_cycle;Signal;HPM_P1;HPM_P2
2022/11/02 00:00:30;;;;;;;6.78;0.90;;;13.70;99.90;;;;;;5040239;28;20037;-72
2022/11/02 00:02:56;;;;;;;5.18;0.60;;;13.80;99.90;;;;;;5022515;28;20087;-72
2022/11/02 00:05:23;;;;;;;5.70;0.68;;;13.80;99.90;;;;;;5041900;28;20059;-73
2022/11/02 00:07:51;;;;;;;5.97;0.70;;;13.80;99.90;;;;;;5025640;28;20404;-72
2022/11/02 00:10:18;;;;;;;7.32;1.08;;;13.80;99.90;;;;;;5039615;28;20033;-72
2022/11/02 00:12:45;;;;;;;10.35;1.20;;;13.80;99.90;;;;;;5039844;28;20025;-72
2022/11/02 00:15:11;;;;;;;6.22;0.60;;;13.80;99.90;;;;;;5039356;28;20033;-72
2022/11/02 00:17:40;;;;;;;6.80;0.90;;;13.90;99.90;;;;;;5041919;28;20067;-72
2022/11/02 00:20:07;;;;;;;8.27;1.55;;;13.90;99.90;;;;;;5022781;28;20498;-72
2022/11/02 00:22:33;;;;;;;6.65;0.88;;;13.90;99.90;;;;;;5040443;28;20052;-72
2022/11/02 00:25:02;;;;;;;8.68;0.80;;;13.90;99.90;;;;;;5008719;28;20059;-73
2022/11/02 00:27:30;;;;;;;9.27;0.80;;;13.90;99.90;;;;;;5041422;28;20056;-72
2022/11/02 00:29:58;;;;;;;6.63;0.70;;;13.90;99.90;;;;;;5038328;28;20037;-72
2022/11/02 00:32:25;;;;;;;10.18;1.13;;;13.90;99.90;;;;;;5038279;28;20044;-73
2022/11/02 00:34:52;;;;;;;9.25;1.10;;;13.90;99.90;;;;;;5024523;28;20058;-72
2022/11/02 00:37:18;;;;;;;12.30;1.00;;;13.80;99.90;;;;;;5025319;28;20341;-73
2022/11/02 00:39:45;;;;;;;5.70;0.50;;;13.70;99.90;;;;;;5022481;28;20040;-73
2022/11/02 00:42:11;;;;;;;8.32;1.05;;;13.60;99.90;;;;;;5021793;28;20033;-72
2022/11/02 00:44:38;;;;;;;7.72;0.80;;;13.50;99.90;;;;;;5040967;28;20412;-72
2022/11/02 00:47:04;;;;;;;6.38;0.82;;;13.40;99.90;;;;;;5026675;28;21046;-72
2022/11/02 00:49:30;;;;;;;6.05;1.08;;;13.30;99.90;;;;;;5027283;28;20459;-73
2022/11/02 00:51:58;;;;;;;5.68;0.93;;;13.30;99.90;;;;;;5019220;28;20497;-73
2022/11/02 00:54:26;;;;;;;6.55;0.57;;;13.20;99.90;;;;;;5024314;28;20045;-73
2022/11/02 00:56:54;;;;;;;5.80;1.25;;;13.20;99.90;;;;;;5025096;28;20053;-72
2022/11/02 00:59:20;;;;;;;7.45;0.70;;;13.10;99.90;;;;;;5041874;28;20083;-72
2022/11/02 01:01:48;;;;;;;7.28;0.93;;;13.10;99.90;;;;;;5018488;28;20506;-72
2022/11/02 01:04:16;;;;;;;9.52;0.65;;;13.00;99.90;;;;;;5040901;28;20059;-72
2022/11/02 01:06:43;;;;;;;5.40;0.70;;;12.90;99.90;;;;;;5040669;28;20044;-72
2022/11/02 01:09:10;;;;;;;6.22;0.68;;;12.90;99.90;;;;;;5024715;28;20383;-73
2022/11/02 01:11:36;;;;;;;6.47;0.60;;;12.90;99.90;;;;;;5020650;28;20044;-72
2022/11/02 01:14:03;;;;;;;7.35;0.80;;;12.90;99.90;;;;;;5045116;28;20037;-72
2022/11/02 01:16:30;;;;;;;11.48;0.90;;;12.90;99.90;;;;;;5044746;28;20056;-72
2022/11/02 01:18:57;;;;;;;9.02;1.10;;;12.90;99.90;;;;;;5013104;28;20044;-73
2022/11/02 01:21:24;;;;;;;3.97;0.75;;;12.90;99.90;;;;;;5039567;28;20041;-72
2022/11/02 01:23:51;;;;;;;5.43;0.95;;;12.80;99.90;;;;;;5043318;28;20047;-73
2022/11/02 01:26:18;;;;;;;7.32;1.45;;;12.90;99.90;;;;;;5013033;28;20055;-73
2022/11/02 01:28:44;;;;;;;5.82;0.60;;;12.90;99.90;;;;;;5025743;28;20029;-73
2022/11/02 01:31:12;;;;;;;4.85;0.50;;;12.90;99.90;;;;;;5040862;28;20048;-73
2022/11/02 01:33:43;;;;;;;2.85;0.40;;;13.00;99.90;;;;;;5044235;28;20511;-73
2022/11/02 01:36:11;;;;;;;7.07;0.60;;;13.00;99.90;;;;;;5010179;28;20036;-72
2022/11/02 01:38:38;;;;;;;3.65;0.43;;;12.90;99.90;;;;;;5041273;28;20372;-72
2022/11/02 01:41:04;;;;;;;6.97;0.43;;;12.90;99.90;;;;;;5023101;28;20048;-73
2022/11/02 01:43:33;;;;;;;4.97;0.50;;;13.00;99.90;;;;;;5040841;28;20033;-72
2022/11/02 01:46:23;;;;;;;5.25;0.57;;;13.00;99.90;;;;;;5025907;28;20052;-72
2022/11/02 01:49:22;;;;;;;6.90;0.77;;;13.00;99.90;;;;;;5025153;28;20036;-72
2022/11/02 01:51:55;;;;;;;7.82;0.85;;;13.10;99.90;;;;;;5024641;28;20057;-73
2022/11/02 01:54:25;;;;;;;4.03;0.80;;;13.00;99.90;;;;;;5022813;28;20063;-73
2022/11/02 01:56:57;;;;;;;4.28;0.73;;;12.70;99.90;;;;;;5042219;28;20411;-73
2022/11/02 01:59:29;;;;;;;5.57;0.40;;;12.40;99.90;;;;;;5040095;28;20033;-73
2022/11/02 02:01:56;;;;;;;3.13;0.20;;;12.20;99.90;;;;;;5018440;28;20052;-73
2022/11/02 02:04:22;;;;;;;3.10;0.20;;;12.00;99.90;;;;;;5040998;28;20403;-74
2022/11/02 02:06:50;;;;;;;1.40;0.20;;;11.80;99.90;;;;;;5008766;28;20036;-74
2022/11/02 02:09:19;;;;;;;4.28;0.30;;;11.70;99.90;;;;;;5010870;28;20414;-75
2022/11/02 02:11:45;;;;;;;4.18;0.20;;;11.60;99.90;;;;;;5037917;28;20384;-74
2022/11/02 02:14:14;;;;;;;3.28;0.30;;;11.50;99.90;;;;;;5041432;28;20391;-74
2022/11/02 02:17:10;;;;;;;2.08;0.20;;;11.50;99.90;;;;;;5026390;28;20041;-76
2022/11/02 02:20:06;;;;;;;4.65;0.55;;;11.40;99.90;;;;;;5008881;28;20123;-75
2022/11/02 02:22:48;;;;;;;3.90;0.50;;;11.40;99.90;;;;;;5012845;28;20032;-75
2022/11/02 02:26:05;;;;;;;2.10;0.20;;;11.40;99.90;;;;;;5043546;28;20139;-75
2022/11/02 02:28:41;;;;;;;5.07;0.73;;;11.40;99.90;;;;;;5002509;28;20050;-75
2022/11/02 02:31:29;;;;;;;3.78;0.30;;;11.40;99.90;;;;;;5040163;28;20053;-76
2022/11/02 02:34:22;;;;;;;1.30;0.10;;;11.30;99.90;;;;;;5044519;28;20044;-76
2022/11/02 02:36:54;;;;;;;3.40;0.20;;;11.40;99.90;;;;;;5041272;28;20048;-75
2022/11/02 02:39:28;;;;;;;3.33;0.20;;;11.40;99.90;;;;;;5046676;28;20036;-76
2022/11/02 02:41:59;;;;;;;3.28;0.30;;;11.30;99.90;;;;;;5038359;28;20043;-77
2022/11/02 02:44:31;;;;;;;3.38;0.20;;;11.20;99.90;;;;;;5026642;28;20048;-76
2022/11/02 02:46:59;;;;;;;3.63;0.20;;;11.10;99.90;;;;;;5043958;28;20494;-75
2022/11/02 02:49:36;;;;;;;3.63;0.22;;;11.00;99.90;;;;;;5044924;28;20051;-76
2022/11/02 02:52:04;;;;;;;3.92;0.30;;;10.90;99.90;;;;;;5022929;28;20040;-76
2022/11/02 02:54:36;;;;;;;3.38;0.30;;;10.80;99.90;;;;;;5025907;28;20519;-76
2022/11/02 02:57:16;;;;;;;3.92;0.32;;;10.70;99.90;;;;;;5043600;28;20598;-76
2022/11/02 02:59:45;;;;;;;2.22;0.30;;;10.70;99.90;;;;;;5024868;28;20029;-74
2022/11/02 03:02:35;;;;;;;2.15;0.28;;;10.60;99.90;;;;;;5040911;28;20045;-75
2022/11/02 03:05:20;;;;;;;2.35;0.30;;;10.60;99.90;;;;;;5026718;28;20037;-75
2022/11/02 03:07:47;;;;;;;3.40;0.65;;;10.60;99.90;;;;;;5026532;28;20412;-75
2022/11/02 03:10:24;;;;;;;4.68;0.30;;;10.60;99.90;;;;;;5041889;28;20040;-74
2022/11/02 03:13:19;;;;;;;4.07;0.30;;;10.70;99.90;;;;;;5040430;28;20029;-75
2022/11/02 03:16:00;;;;;;;5.30;0.30;;;10.70;99.90;;;;;;5024142;28;20045;-73
2022/11/02 03:18:35;;;;;;;3.58;0.40;;;10.80;99.90;;;;;;5026676;28;20509;-75
2022/11/02 03:21:30;;;;;;;7.70;0.60;;;10.90;99.90;;;;;;5024294;28;20032;-75
2022/11/02 03:24:07;;;;;;;4.30;0.40;;;11.10;99.90;;;;;;5043651;28;20033;-74
2022/11/02 03:26:36;;;;;;;7.28;0.70;;;11.20;99.90;;;;;;5026221;28;20114;-74
2022/11/02 03:29:24;;;;;;;6.97;0.68;;;11.20;99.90;;;;;;5042436;28;20060;-73
2022/11/02 03:32:18;;;;;;;6.10;0.47;;;11.20;99.90;;;;;;5024098;28;20056;-73
2022/11/02 03:34:50;;;;;;;5.25;0.43;;;11.30;99.90;;;;;;5006746;28;20049;-73
2022/11/02 03:37:25;;;;;;;5.80;0.65;;;11.30;99.90;;;;;;5025401;28;20044;-74
2022/11/02 03:40:13;;;;;;;9.95;0.80;;;11.30;99.90;;;;;;5023399;28;20506;-74
2022/11/02 03:42:42;;;;;;;11.35;0.70;;;11.30;99.90;;;;;;5024021;28;20044;-73
2022/11/02 03:45:14;;;;;;;6.80;0.50;;;11.30;99.90;;;;;;5042048;28;20052;-73
2022/11/02 03:47:45;;;;;;;8.35;1.25;;;11.30;99.90;;;;;;5043664;28;20044;-73
2022/11/02 03:50:16;;;;;;;6.88;0.75;;;11.30;99.90;;;;;;5040635;28;20048;-73
2022/11/02 03:52:45;;;;;;;7.20;0.50;;;11.40;99.90;;;;;;5038877;28;20037;-73
2022/11/02 03:55:34;;;;;;;9.75;0.80;;;11.40;99.90;;;;;;5044160;28;20459;-73
2022/11/02 03:58:01;;;;;;;13.50;1.10;;;11.40;99.90;;;;;;5008327;28;20795;-73
2022/11/02 04:00:34;;;;;;;4.50;0.75;;;11.40;99.90;;;;;;5041200;28;20045;-73
2022/11/02 04:03:07;;;;;;;7.80;0.70;;;11.40;99.90;;;;;;5028711;28;20269;-74
2022/11/02 04:05:39;;;;;;;12.98;0.85;;;11.40;99.90;;;;;;5027708;28;20041;-74
2022/11/02 04:08:21;;;;;;;7.43;0.60;;;11.40;99.90;;;;;;5024633;28;20040;-73
2022/11/02 04:16:24;;;;;;;7.93;0.85;;;11.30;99.90;;;;;;5027486;28;20049;-73
2022/11/02 04:21:38;;;;;;;9.77;0.93;;;11.40;99.90;;;;;;5038211;28;20040;-73
2022/11/02 04:26:49;;;;;;;9.02;1.25;;;11.40;99.90;;;;;;5028942;28;20036;-74
2022/11/02 04:29:17;;;;;;;10.45;1.05;;;11.40;99.90;;;;;;5043389;28;20407;-73
2022/11/02 04:31:44;;;;;;;14.13;1.30;;;11.40;99.90;;;;;;5039309;28;20040;-73
2022/11/02 04:34:11;;;;;;;7.07;0.90;;;11.40;99.90;;;;;;5042599;28;20392;-73
2022/11/02 04:36:38;;;;;;;12.13;0.90;;;11.50;99.90;;;;;;5026867;28;20036;-74
2022/11/02 04:39:05;;;;;;;15.02;1.48;;;11.50;99.90;;;;;;5041551;28;20041;-74
2022/11/02 04:41:41;;;;;;;11.65;1.20;;;11.50;99.90;;;;;;5036536;28;20420;-73
2022/11/02 04:44:20;;;;;;;12.32;1.00;;;11.50;99.90;;;;;;5040191;28;20036;-73
2022/11/02 04:46:55;;;;;;;10.60;1.17;;;11.60;99.90;;;;;;5023711;28;20044;-73
2022/11/02 04:49:25;;;;;;;6.28;0.93;;;11.70;99.90;;;;;;5026747;28;20044;-74
2022/11/02 04:51:53;;;;;;;8.40;0.52;;;11.80;99.90;;;;;;5003136;28;20044;-73
2022/11/02 04:54:20;;;;;;;12.45;1.33;;;11.80;99.90;;;;;;5040897;28;20037;-74
2022/11/02 04:56:51;;;;;;;20.02;1.58;;;11.80;99.90;;;;;;5024450;28;20049;-74
2022/11/02 04:59:19;;;;;;;10.88;1.30;;;11.90;99.90;;;;;;5040982;28;20033;-73
2022/11/02 05:01:46;;;;;;;11.77;2.17;;;11.90;99.90;;;;;;5003358;28;20057;-73
2022/11/02 05:04:15;;;;;;;7.13;0.70;;;12.00;99.90;;;;;;5023469;28;20048;-74
2022/11/02 05:06:41;;;;;;;15.95;2.13;;;12.00;99.90;;;;;;5025359;28;20502;-73
2022/11/02 05:09:09;;;;;;;7.95;0.63;;;12.00;99.90;;;;;;5041251;28;20439;-74
2022/11/02 05:11:39;;;;;;;12.45;1.20;;;12.10;99.90;;;;;;5036771;28;20041;-73
2022/11/02 05:14:06;;;;;;;10.90;1.60;;;12.10;99.90;;;;;;5040714;28;20029;-74
2022/11/02 05:16:32;;;;;;;15.00;1.58;;;12.20;99.90;;;;;;5023669;28;20041;-73
2022/11/02 05:18:59;;;;;;;9.25;1.00;;;12.20;99.90;;;;;;5039813;28;20392;-73
2022/11/02 05:21:26;;;;;;;10.27;0.90;;;12.20;99.90;;;;;;5035772;28;20033;-73
2022/11/02 05:23:55;;;;;;;15.02;1.48;;;12.20;99.90;;;;;;5039935;28;20033;-74
2022/11/02 05:26:22;;;;;;;9.10;0.93;;;12.20;99.90;;;;;;5007496;28;20458;-74
2022/11/02 05:28:51;;;;;;;8.65;0.93;;;12.20;99.90;;;;;;5023680;28;20036;-73
2022/11/02 05:31:18;;;;;;;12.82;1.00;;;12.20;99.90;;;;;;5025379;28;20405;-74
2022/11/02 05:33:45;;;;;;;10.15;1.05;;;12.10;99.90;;;;;;5022282;28;20452;-73
2022/11/02 05:36:16;;;;;;;10.50;0.90;;;12.10;99.90;;;;;;5008471;28;20056;-73
2022/11/02 05:38:45;;;;;;;17.90;1.90;;;12.00;99.90;;;;;;5013140;28;20033;-74
2022/11/02 05:41:12;;;;;;;11.07;1.15;;;12.00;99.90;;;;;;5038874;28;20041;-73
2022/11/02 05:43:40;;;;;;;7.47;1.05;;;12.10;99.90;;;;;;5022247;28;20040;-73
2022/11/02 05:46:09;;;;;;;8.85;0.98;;;12.10;99.90;;;;;;5040365;28;20045;-73
2022/11/02 05:48:35;;;;;;;10.18;1.15;;;12.10;99.90;;;;;;5041810;28;20045;-74
2022/11/02 05:51:03;;;;;;;8.02;0.80;;;12.10;99.90;;;;;;5021295;28;20048;-74
2022/11/02 05:53:31;;;;;;;12.02;0.90;;;12.20;99.90;;;;;;5003749;28;20046;-73
2022/11/02 05:56:01;;;;;;;7.95;0.85;;;12.20;99.90;;;;;;5040956;28;20411;-74
2022/11/02 05:58:28;;;;;;;9.65;0.90;;;12.30;99.90;;;;;;5041120;28;20056;-74
2022/11/02 06:00:59;;;;;;;7.45;0.60;;;12.30;99.90;;;;;;5028114;28;20036;-74
2022/11/02 06:03:25;;;;;;;6.63;0.70;;;12.30;99.90;;;;;;5024702;28;20021;-73
2022/11/02 06:05:56;;;;;;;10.73;0.88;;;12.30;99.90;;;;;;5026036;28;20490;-73
2022/11/02 06:08:22;;;;;;;8.55;0.88;;;12.30;99.90;;;;;;5045033;28;20033;-74
2022/11/02 06:10:48;;;;;;;8.35;0.80;;;12.30;99.90;;;;;;5042571;28;20108;-74
2022/11/02 06:13:15;;;;;;;10.85;1.30;;;12.30;99.90;;;;;;5041255;28;20040;-73
2022/11/02 06:15:41;;;;;;;9.75;0.90;;;12.30;99.90;;;;;;5043850;28;20040;-74
2022/11/02 06:18:07;;;;;;;10.80;1.17;;;12.30;99.90;;;;;;5044841;28;20036;-75
2022/11/02 06:20:34;;;;;;;9.00;0.70;;;12.40;99.90;;;;;;5027851;28;20048;-74
2022/11/02 06:23:00;;;;;;;10.50;1.25;;;12.40;99.90;;;;;;5042808;28;20036;-75
2022/11/02 06:25:27;;;;;;;12.35;1.27;;;12.40;99.90;;;;;;5048604;28;20040;-75
2022/11/02 06:27:55;;;;;;;9.73;1.08;;;12.40;99.90;;;;;;5029546;28;20344;-74
2022/11/02 06:30:25;;;;;;;11.20;1.10;;;12.40;99.90;;;;;;5044011;28;20514;-75
2022/11/02 06:32:53;;;;;;;8.80;0.80;;;12.40;99.90;;;;;;5045347;28;20028;-74
2022/11/02 06:35:21;;;;;;;14.20;1.42;;;12.40;99.90;;;;;;5028110;28;20532;-73
2022/11/02 06:37:47;;;;;;;11.57;0.93;;;12.40;99.90;;;;;;5015010;28;20045;-74
2022/11/02 06:40:14;;;;;;;9.30;1.10;;;12.40;99.90;;;;;;5044762;28;20053;-74
2022/11/02 06:42:40;;;;;;;9.07;1.42;;;12.30;99.90;;;;;;5029001;28;20041;-74
2022/11/02 06:45:07;;;;;;;11.40;0.95;;;12.30;99.90;;;;;;5032133;28;20059;-74
2022/11/02 06:47:36;;;;;;;12.10;1.35;;;12.20;99.90;;;;;;5028015;28;20044;-75
2022/11/02 06:50:04;;;;;;;11.25;0.93;;;12.10;99.90;;;;;;5011581;28;20064;-74
2022/11/02 06:52:30;;;;;;;13.63;0.70;;;12.00;99.90;;;;;;5042155;28;20044;-74
2022/11/02 06:54:56;;;;;;;9.35;1.10;;;11.90;99.90;;;;;;5044356;28;20044;-75
2022/11/02 06:57:23;;;;;;;14.60;1.83;;;11.90;99.90;;;;;;5028795;28;20421;-74
2022/11/02 06:59:49;;;;;;;9.18;1.30;;;11.80;99.90;;;;;;5040900;28;20527;-73
2022/11/02 07:02:15;;;;;;;13.32;1.13;;;11.70;99.90;;;;;;5042148;28;20476;-73
2022/11/02 07:04:41;;;;;;;6.95;0.63;;;11.60;99.90;;;;;;5043739;28;20036;-73
2022/11/02 07:07:08;;;;;;;6.53;0.70;;;11.60;99.90;;;;;;5026462;28;20044;-75
2022/11/02 07:09:35;;;;;;;11.80;0.95;;;11.60;99.90;;;;;;5044499;28;20041;-73
2022/11/02 07:12:01;;;;;;;11.98;1.17;;;11.50;99.90;;;;;;5040940;28;20479;-74
2022/11/02 07:14:28;;;;;;;6.72;0.60;;;11.50;99.90;;;;;;5008954;28;20479;-74
2022/11/02 07:16:55;;;;;;;7.50;0.70;;;11.60;99.90;;;;;;5045238;28;20045;-74
2022/11/02 07:19:21;;;;;;;10.63;1.10;;;11.60;99.90;;;;;;5044458;28;20029;-73
2022/11/02 07:21:47;;;;;;;8.82;1.00;;;11.70;99.90;;;;;;5022348;28;21048;-74
2022/11/02 07:24:13;;;;;;;12.57;1.42;;;11.70;99.90;;;;;;5044086;28;20048;-73
2022/11/02 07:26:39;;;;;;;12.65;1.63;;;11.70;99.90;;;;;;5026674;28;20049;-73
2022/11/02 07:29:06;;;;;;;5.57;1.00;;;11.70;99.90;;;;;;5042898;28;20036;-74
2022/11/02 07:31:32;;;;;;;10.43;2.00;;;11.70;99.90;;;;;;5039722;28;20045;-74
2022/11/02 07:33:58;;;;;;;9.73;1.00;;;11.80;99.90;;;;;;5043708;28;20020;-75
2022/11/02 07:36:25;;;;;;;6.25;0.82;;;11.80;99.90;;;;;;5026213;28;20045;-75
2022/11/02 07:38:51;;;;;;;10.60;1.65;;;11.80;99.90;;;;;;5045129;28;20031;-72
2022/11/02 07:41:17;;;;;;;11.48;1.15;;;11.80;99.90;;;;;;5040160;28;20040;-73
2022/11/02 07:43:43;;;;;;;10.35;0.85;;;11.90;99.90;;;;;;5038977;28;20033;-74
2022/11/02 07:46:32;;;;;;;13.52;1.15;;;11.90;99.90;;;;;;5041766;28;20037;-74
2022/11/02 07:48:58;;;;;;;6.82;1.15;;;12.00;99.90;;;;;;5041519;28;20501;-74
2022/11/02 07:51:24;;;;;;;11.07;1.52;;;12.10;99.90;;;;;;5037452;28;20052;-72
2022/11/02 07:53:50;;;;;;;5.95;0.88;;;12.10;99.90;;;;;;5040351;28;20043;-72
2022/11/02 07:56:17;;;;;;;14.82;1.08;;;12.30;99.90;;;;;;5022749;28;20053;-74
2022/11/02 07:58:43;;;;;;;12.73;1.00;;;12.40;99.90;;;;;;5042792;28;20040;-72
2022/11/02 08:01:09;;;;;;;8.65;0.80;;;12.60;99.90;;;;;;5040168;28;20045;-74
2022/11/02 08:03:36;;;;;;;7.50;0.63;;;12.70;99.90;;;;;;5039078;28;20029;-76
2022/11/02 08:06:02;;;;;;;9.88;0.90;;;12.80;99.90;;;;;;5042046;28;20029;-75
2022/11/02 08:08:29;;;;;;;7.63;1.10;;;12.90;99.90;;;;;;5040911;28;20036;-76
2022/11/02 08:11:03;;;;;;;11.02;2.53;;;12.90;99.90;;;;;;5040405;28;20049;-77
2022/11/02 08:13:29;;;;;;;10.75;1.48;;;12.80;99.90;;;;;;5020288;28;20037;-74
2022/11/02 08:15:55;;;;;;;10.55;0.85;;;12.70;99.90;;;;;;5021566;28;20029;-77
2022/11/02 08:18:24;;;;;;;7.30;0.85;;;12.60;99.90;;;;;;5005153;28;20056;-75
2022/11/02 08:20:51;;;;;;;6.93;1.30;;;12.50;99.90;;;;;;5016994;28;20033;-75
2022/11/02 08:23:19;;;;;;;10.77;0.93;;;12.40;99.90;;;;;;5017858;28;20043;-74
2022/11/02 08:25:47;;;;;;;8.52;0.88;;;12.50;99.90;;;;;;5041598;28;20468;-73
2022/11/02 08:28:21;;;;;;;9.25;0.93;;;12.50;99.90;;;;;;5023257;28;20048;-74
2022/11/02 08:30:48;;;;;;;6.65;0.82;;;12.50;99.90;;;;;;5037570;28;20033;-75
2022/11/02 08:33:16;;;;;;;11.18;1.08;;;12.50;99.90;;;;;;5037770;28;20037;-72
2022/11/02 08:35:44;;;;;;;9.32;0.70;;;12.50;99.90;;;;;;5023546;28;20044;-75
2022/11/02 08:38:11;;;;;;;11.00;1.52;;;12.40;99.90;;;;;;5039311;28;20060;-74
2022/11/02 08:40:38;;;;;;;7.32;1.38;;;12.30;99.90;;;;;;5005288;28;20037;-75
2022/11/02 08:43:07;;;;;;;10.80;1.13;;;12.20;99.90;;;;;;5021551;28;20079;-73
2022/11/02 08:45:37;;;;;;;8.00;0.82;;;12.10;99.90;;;;;;5039602;28;20036;-75
2022/11/02 08:48:04;;;;;;;10.05;0.98;;;12.10;99.90;;;;;;5023173;28;20040;-74
2022/11/02 08:50:30;;;;;;;6.65;0.93;;;12.10;99.90;;;;;;5038344;28;20036;-75
2022/11/02 08:52:57;;;;;;;5.53;0.52;;;12.10;99.90;;;;;;5038429;28;20543;-75
2022/11/02 08:55:23;;;;;;;8.70;0.98;;;12.20;99.90;;;;;;5021954;28;20045;-73
2022/11/02 08:57:51;;;;;;;9.35;0.80;;;12.30;99.90;;;;;;5038119;28;20049;-73
2022/11/02 09:00:22;;;;;;;10.43;1.55;;;12.40;99.90;;;;;;5039835;28;20050;-74
2022/11/02 09:03:12;;;;;;;10.77;1.13;;;12.40;99.90;;;;;;5020771;28;20503;-75
2022/11/02 09:05:43;;;;;;;10.05;0.70;;;12.50;99.90;;;;;;5041754;28;20417;-75
2022/11/02 09:08:13;;;;;;;10.55;1.23;;;12.50;99.90;;;;;;5053797;28;20037;-74
2022/11/02 09:10:39;;;;;;;8.65;0.90;;;12.50;99.90;;;;;;5039491;28;20036;-74
2022/11/02 09:13:08;;;;;;;11.15;1.45;;;12.60;99.90;;;;;;5017711;28;20056;-74
2022/11/02 09:15:36;;;;;;;12.60;1.30;;;12.60;99.90;;;;;;5039335;28;20051;-74
2022/11/02 09:18:03;;;;;;;16.30;1.33;;;12.70;99.90;;;;;;5042495;28;20060;-75
2022/11/02 09:20:30;;;;;;;10.30;1.25;;;12.70;99.90;;;;;;5034584;28;20045;-73
2022/11/02 09:22:57;;;;;;;8.57;1.15;;;12.80;99.90;;;;;;5002725;28;20044;-74
2022/11/02 09:25:23;;;;;;;6.22;0.73;;;12.80;99.90;;;;;;5036703;28;20032;-73
2022/11/02 09:27:54;;;;;;;11.35;1.45;;;12.90;99.90;;;;;;5035350;28;20029;-73
2022/11/02 09:30:21;;;;;;;13.75;1.10;;;12.90;99.90;;;;;;5018441;28;20044;-72
2022/11/02 09:32:55;;;;;;;10.93;1.00;;;13.00;99.90;;;;;;5016399;28;20475;-73
2022/11/02 09:35:22;;;;;;;9.95;1.00;;;13.20;99.90;;;;;;5034877;28;20032;-72
2022/11/02 09:37:48;;;;;;;8.70;0.90;;;13.30;99.90;;;;;;5036817;28;20060;-73
2022/11/02 09:40:26;;;;;;;8.85;0.95;;;13.30;99.90;;;;;;5019572;28;20040;-73
2022/11/02 09:43:12;;;;;;;6.22;1.10;;;13.30;99.90;;;;;;5001846;28;20463;-75
2022/11/02 09:45:58;;;;;;;12.45;1.13;;;13.50;99.90;;;;;;5038066;28;20044;-75
2022/11/02 09:48:33;;;;;;;5.05;1.10;;;13.80;99.90;;;;;;5035907;28;20052;-71
2022/11/02 09:51:07;;;;;;;7.65;1.95;;;14.00;99.90;;;;;;5034725;28;20041;-74
2022/11/02 09:53:49;;;;;;;8.63;1.10;;;14.30;99.90;;;;;;5035226;28;20492;-73
2022/11/02 09:56:18;;;;;;;9.32;0.93;;;14.60;99.90;;;;;;5038138;28;20048;-71
2022/11/02 09:58:49;;;;;;;9.98;2.67;;;14.90;99.90;;;;;;5036272;28;20577;-72
2022/11/02 10:01:37;;;;;;;5.47;0.90;;;15.10;99.90;;;;;;5022506;28;20505;-73
2022/11/02 10:04:37;;;;;;;6.53;0.90;;;15.30;99.90;;;;;;5034785;28;20036;-73
2022/11/02 10:07:38;;;;;;;6.93;0.85;;;15.40;99.90;;;;;;5035126;28;20041;-73
2022/11/02 10:10:30;;;;;;;6.68;1.13;;;15.40;99.90;;;;;;4998414;28;20049;-73
2022/11/02 10:13:25;;;;;;;7.85;1.63;;;15.50;99.90;;;;;;5036711;28;20036;-74
2022/11/02 10:15:58;;;;;;;9.07;1.25;;;15.60;99.90;;;;;;5030918;28;20057;-72
2022/11/02 10:18:26;;;;;;;9.68;1.48;;;15.90;99.90;;;;;;5015587;28;20037;-71
2022/11/02 10:21:11;;;;;;;7.90;0.90;;;16.00;99.90;;;;;;4995854;28;20412;-72
2022/11/02 10:23:41;;;;;;;9.15;1.13;;;16.20;99.90;;;;;;5030682;28;20579;-73
2022/11/02 10:26:17;;;;;;;9.73;0.90;;;16.50;99.90;;;;;;5034433;28;20867;-72
2022/11/02 10:28:47;;;;;;;7.68;0.65;;;16.70;99.90;;;;;;5031438;28;20032;-72
2022/11/02 10:31:26;;;;;;;5.65;0.90;;;17.00;99.90;;;;;;5015533;28;20037;-71
2022/11/02 10:33:55;;;;;;;6.90;1.02;;;17.20;99.90;;;;;;5034117;28;20043;-71
2022/11/02 10:36:46;;;;;;;5.40;0.60;;;17.50;99.90;;;;;;5018446;28;20045;-71
2022/11/02 10:39:15;;;;;;;9.52;1.73;;;17.80;99.90;;;;;;5033537;28;20052;-71
2022/11/02 10:42:28;;;;;;;7.40;0.90;;;17.80;99.90;;;;;;5027710;28;20037;-72
2022/11/02 10:45:28;;;;;;;9.48;0.70;;;17.60;99.90;;;;;;5002548;28;20488;-71
2022/11/02 10:48:05;;;;;;;6.45;1.92;;;17.10;99.90;;;;;;5021192;28;20060;-71
2022/11/02 10:50:54;;;;;;;8.55;1.40;;;16.70;99.90;;;;;;5002994;28;20492;-70
2022/11/02 10:53:20;;;;;;;8.05;0.68;;;16.40;99.90;;;;;;5033752;28;20052;-72
2022/11/02 10:56:23;;;;;;;8.27;1.08;;;16.10;99.90;;;;;;5046036;28;20052;-71
2022/11/02 10:59:01;;;;;;;7.10;0.80;;;15.80;99.90;;;;;;5011940;28;20049;-72
2022/11/02 11:01:29;;;;;;;5.88;0.68;;;15.50;99.90;;;;;;5042232;28;20029;-71
2022/11/02 11:04:00;;;;;;;7.20;0.73;;;15.30;99.90;;;;;;5044455;28;20044;-72
2022/11/02 11:06:42;;;;;;;9.38;0.98;;;15.20;99.90;;;;;;5044590;28;20037;-71
2022/11/02 11:09:20;;;;;;;7.50;0.85;;;15.10;99.90;;;;;;5044013;28;20476;-71
2022/11/02 11:11:54;;;;;;;6.63;0.73;;;15.10;99.90;;;;;;5029834;28;20045;-71
2022/11/02 11:14:22;;;;;;;9.20;1.00;;;15.20;99.90;;;;;;5033055;28;20412;-71
2022/11/02 11:17:11;;;;;;;7.10;0.90;;;15.30;99.90;;;;;;5028551;28;20048;-71
2022/11/02 11:19:56;;;;;;;10.25;0.90;;;15.30;99.90;;;;;;5036924;28;20053;-73
2022/11/02 11:22:25;;;;;;;12.73;1.23;;;15.40;99.90;;;;;;5025574;28;20033;-71
2022/11/02 11:24:52;;;;;;;10.30;2.03;;;15.50;99.90;;;;;;5040997;28;20041;-70
2022/11/02 11:27:22;;;;;;;15.02;3.05;;;15.60;99.90;;;;;;5040932;28;20029;-70
2022/11/02 11:29:53;;;;;;;15.60;4.15;;;15.60;99.90;;;;;;5039836;28;20024;-70
2022/11/02 11:32:29;;;;;;;8.18;1.50;;;15.50;99.90;;;;;;5040651;28;20538;-72
2022/11/02 11:34:59;;;;;;;12.65;1.40;;;15.40;99.90;;;;;;5026471;28;20032;-72
2022/11/02 11:37:26;;;;;;;9.07;1.83;;;15.30;99.90;;;;;;5041689;28;20526;-70
2022/11/02 11:39:58;;;;;;;7.53;1.10;;;15.30;99.90;;;;;;5039032;28;20036;-71
2022/11/02 11:42:27;;;;;;;8.75;1.30;;;15.30;99.90;;;;;;5042502;28;20573;-72
2022/11/02 11:45:07;;;;;;;10.80;1.63;;;15.30;99.90;;;;;;5041441;28;20029;-70
2022/11/02 11:47:39;;;;;;;5.50;0.88;;;15.40;99.90;;;;;;5043614;28;20029;-71
2022/11/02 11:50:16;;;;;;;9.27;1.75;;;15.50;99.90;;;;;;5043708;28;20033;-71
2022/11/02 11:52:43;;;;;;;9.57;1.35;;;15.60;99.90;;;;;;5045433;28;20490;-71
2022/11/02 11:55:28;;;;;;;7.28;0.63;;;15.80;99.90;;;;;;5042134;28;20048;-70
2022/11/02 11:58:21;;;;;;;8.55;1.02;;;16.20;99.90;;;;;;5040358;28;20040;-70
2022/11/02 12:01:10;;;;;;;8.95;1.38;;;16.60;99.90;;;;;;5039379;28;20411;-71
2022/11/02 12:03:51;;;;;;;7.45;0.80;;;16.70;99.90;;;;;;5012165;28;20049;-71
2022/11/02 12:06:45;;;;;;;8.15;0.90;;;16.60;99.90;;;;;;5051927;28;20032;-71
2022/11/02 12:09:30;;;;;;;7.75;0.93;;;16.40;99.90;;;;;;4999292;28;20416;-71
2022/11/02 12:12:22;;;;;;;7.05;0.88;;;16.20;99.90;;;;;;5033078;28;20037;-70
2022/11/02 12:15:03;;;;;;;7.47;0.60;;;16.10;99.90;;;;;;5018023;28;20033;-71
2022/11/02 12:17:57;;;;;;;5.80;0.80;;;16.10;99.90;;;;;;5018591;28;20044;-71
2022/11/02 12:20:44;;;;;;;7.10;1.20;;;16.00;99.90;;;;;;5032764;28;20124;-71
2022/11/02 12:23:32;;;;;;;8.32;1.00;;;15.90;99.90;;;;;;5024380;28;20780;-71
2022/11/02 12:26:29;;;;;;;5.30;0.70;;;15.80;99.90;;;;;;5036030;28;20099;-71
2022/11/02 12:29:01;;;;;;;5.25;0.60;;;15.60;99.90;;;;;;5033319;28;20033;-71
2022/11/02 12:31:46;;;;;;;;;;;15.50;99.90;;;;;;5020359;28;20033;-71
2022/11/02 12:34:24;;;;;;;8.32;1.58;;;15.40;99.90;;;;;;5042105;28;19917;-72
2022/11/02 12:37:25;;;;;;;7.22;1.08;;;15.30;99.90;;;;;;5058149;28;20052;-71
2022/11/02 12:40:10;;;;;;;3.63;0.63;;;15.10;99.90;;;;;;5041481;28;20047;-70
2022/11/02 12:42:44;;;;;;;8.52;0.65;;;15.10;99.90;;;;;;5041675;28;20041;-70
2022/11/02 12:45:21;;;;;;;10.35;1.67;;;15.00;99.90;;;;;;5011297;28;20037;-71
2022/11/02 12:47:59;;;;;;;9.00;1.20;;;15.10;99.90;;;;;;5010003;28;20036;-71
2022/11/02 12:50:46;;;;;;;9.30;0.90;;;15.20;99.90;;;;;;5035506;28;20036;-71
2022/11/02 12:53:52;;;;;;;9.90;0.80;;;15.10;99.90;;;;;;5014846;28;20401;-71
2022/11/02 12:56:25;;;;;;;7.95;0.85;;;15.10;99.90;;;;;;5034638;28;20387;-70
2022/11/02 12:58:52;;;;;;;5.90;0.70;;;15.00;99.90;;;;;;5018020;28;20039;-71
2022/11/02 13:01:34;;;;;;;11.38;0.98;;;15.00;99.90;;;;;;5033654;28;20036;-71
2022/11/02 13:04:15;;;;;;;7.13;0.65;;;15.00;99.90;;;;;;5034365;28;20095;-70
2022/11/02 13:06:48;;;;;;;7.47;0.68;;;14.90;99.90;;;;;;5035772;28;20059;-71
2022/11/02 13:09:27;;;;;;;8.70;0.90;;;14.90;99.90;;;;;;5039347;28;20029;-71
2022/11/02 13:12:14;;;;;;;7.57;1.00;;;14.90;99.90;;;;;;5001563;28;20051;-70
2022/11/02 13:14:49;;;;;;;7.50;1.40;;;14.90;99.90;;;;;;5031900;28;20039;-71
2022/11/02 13:17:15;;;;;;;4.95;0.68;;;15.00;99.90;;;;;;5019807;28;20673;-70
2022/11/02 13:19:50;;;;;;;3.88;0.60;;;14.90;99.90;;;;;;5025458;28;20048;-70
2022/11/02 13:22:20;;;;;;;9.10;0.70;;;14.90;99.90;;;;;;5012046;28;20041;-71